Terminal Aerodrome Forecast
Issued by NWS Shreveport, LA

Home | Current Version | Previous Version | Text Only | Print | Product List | Glossary On
Versions: 1 2 3 4 5 6 7 8 9 10 11 12 13 14 15 16 17 18
000
FTUS44 KSHV 291746
TAFLFK
TAF
KLFK 291746Z 2918/3018 19014G20KT P6SM SKC
     FM300000 17008KT P6SM SKC
     FM300600 17005KT P6SM OVC015
     FM300900 16002KT 2SM BR OVC004
     FM301500 16003KT 5SM BR OVC007=

USA.gov is the U.S. government's official web portal to all federal, state and local government web resources and services.